Shonan Maru — JDAI — position and weather

sailwx.info

Track history (hours):
 
Tides and Currents Weather Stations Pressure Air Temp Water Temp Dewpoint Dewpoint Depression Visibility Wind Speed Wind Dir Waves Ship Positions

Oceanographic research ship Shonan Maru (Japan)

Detailed information on ship capabilities available from University of Delaware's Ocean Information Center.

Last reported at 2017-Apr-25 03:54 UTC. Time now 2017-May-24 07:59 UTC.
Position N 34°54' E 139°40'.
Warning: this ship's position is 29 days out of date.

Length 63 m; draft 4.5 m.

Type: Fishing. MMSI: 431254000.

Date/timePositionNaut miles runAvg speedWind from/ knotsBaromVisibWave heightAir tempDewpointWater temp
2017-Apr-25 03:54N 34°54' E 139°40'512.7
2017-Apr-25 03:30N 34°58' E 139°38'612.5
2017-Apr-25 03:00N 35°05' E 139°36'4 7.4
2017-Apr-25 02:30N 35°08' E 139°36'1 2.3
2017-Apr-25 02:00N 35°08' E 139°37'0 0.0
2017-Apr-24 23:07N 35°08' E 139°37'0 0.0
2017-Apr-24 23:00N 35°08' E 139°37'1 2.8
2017-Apr-24 22:30N 35°08' E 139°39'2 2.8
2017-Apr-24 21:57N 35°06' E 139°37'2 3.6
2017-Apr-24 21:28N 35°07' E 139°35'2 4.0
2017-Apr-24 20:59N 35°08' E 139°33'3 6.2
2017-Apr-24 20:30N 35°05' E 139°35'510.9
2017-Apr-24 20:00N 35°01' E 139°40'  
2017-Apr-22 04:07N 34°54' E 139°41'211.5
2017-Apr-22 03:54N 34°56' E 139°40'410.5
2017-Apr-22 03:30N 35°00' E 139°38'510.7
2017-Apr-22 03:00N 35°05' E 139°36'3 6.4
2017-Apr-22 02:30N 35°08' E 139°36'1 2.2
2017-Apr-22 02:00N 35°08' E 139°37'  
2017-Apr-19 01:22N 35°08' E 139°37'0 0.0
2017-Apr-18 22:16N 35°08' E 139°37'0 0.0
2017-Apr-18 21:46N 35°08' E 139°37'0 0.0
2017-Apr-18 21:04N 35°08' E 139°37'0 0.0
2017-Apr-18 20:46N 35°08' E 139°37'0 0.0
2017-Apr-18 19:58N 35°08' E 139°37'0 0.0
2017-Apr-18 19:22N 35°08' E 139°37'0 0.0
2017-Apr-18 18:52N 35°08' E 139°37'0 0.0
2017-Apr-18 18:22N 35°08' E 139°37'0 0.0
2017-Apr-18 13:52N 35°08' E 139°37'0 0.0
2017-Apr-18 11:28N 35°08' E 139°37'0 0.0
2017-Apr-18 10:40N 35°08' E 139°37'0 0.0
2017-Apr-18 10:28N 35°08' E 139°37'0 0.0
2017-Apr-18 03:28N 35°08' E 139°37'0 0.0
2017-Apr-18 02:58N 35°08' E 139°37'0 0.0
2017-Apr-18 01:40N 35°08' E 139°37'0 0.0
2017-Apr-18 00:16N 35°08' E 139°37'0 0.0
2017-Apr-17 23:52N 35°08' E 139°37'0 0.0
2017-Apr-17 23:28N 35°08' E 139°37'0 0.0
2017-Apr-17 19:16N 35°08' E 139°37'0 0.0
2017-Apr-17 18:58N 35°08' E 139°37'0 0.0
2017-Apr-17 18:28N 35°08' E 139°37'0 0.0
2017-Apr-17 12:46N 35°08' E 139°37'0 0.0
2017-Apr-17 12:22N 35°08' E 139°37'0 0.0
2017-Apr-17 11:52N 35°08' E 139°37'0 0.0
2017-Apr-17 11:22N 35°08' E 139°37'0 0.0
2017-Apr-17 10:04N 35°08' E 139°37'0 0.0
2017-Apr-17 09:52N 35°08' E 139°37'0 0.0
2017-Apr-17 09:16N 35°08' E 139°37'0 0.0
2017-Apr-17 08:52N 35°08' E 139°37'0 0.0
2017-Apr-17 08:22N 35°08' E 139°37'0 0.0
2017-Apr-17 08:00N 35°08' E 139°37'0 0.7
2017-Apr-17 07:30N 35°08' E 139°37'4 7.9
2017-Apr-17 07:00N 35°05' E 139°40'2 3.9
2017-Apr-17 06:30N 35°04' E 139°42'611.2
2017-Apr-17 06:00N 35°09' E 139°45'611.6
2017-Apr-17 05:30N 35°15' E 139°46'611.7
2017-Apr-17 05:00N 35°20' E 139°42'611.6
2017-Apr-17 04:30N 35°26' E 139°42'4 7.2
2017-Apr-17 04:01N 35°27' E 139°39'0 0.3
2017-Apr-17 03:29N 35°27' E 139°39'0 0.0
2017-Apr-17 02:59N 35°27' E 139°39'0 0.0
2017-Apr-17 02:29N 35°27' E 139°39'0 0.0
2017-Apr-17 01:59N 35°27' E 139°39'0 0.0
2017-Apr-17 01:29N 35°27' E 139°39'0 0.0
2017-Apr-17 00:59N 35°27' E 139°39'0 0.0
2017-Apr-17 00:29N 35°27' E 139°39'0 0.0
2017-Apr-16 23:59N 35°27' E 139°39'0 0.0
2017-Apr-16 23:29N 35°27' E 139°39'0 0.0
2017-Apr-16 22:59N 35°27' E 139°39'0 0.0
2017-Apr-16 22:29N 35°27' E 139°39'0 0.0
2017-Apr-16 21:59N 35°27' E 139°39'0 0.0
2017-Apr-16 21:29N 35°27' E 139°39'0 0.0
2017-Apr-16 20:59N 35°27' E 139°39'0 0.0
2017-Apr-16 20:29N 35°27' E 139°39'0 0.0
2017-Apr-16 19:59N 35°27' E 139°39'0 0.0
2017-Apr-16 19:29N 35°27' E 139°39'0 0.0
2017-Apr-16 18:59N 35°27' E 139°39'0 0.0
2017-Apr-16 18:29N 35°27' E 139°39'0 0.0
2017-Apr-16 17:59N 35°27' E 139°39'0 0.0
2017-Apr-16 17:29N 35°27' E 139°39'0 0.0
2017-Apr-16 16:59N 35°27' E 139°39'0 0.0
2017-Apr-16 16:29N 35°27' E 139°39'0 0.0
2017-Apr-16 15:59N 35°27' E 139°39'0 0.0
2017-Apr-16 15:29N 35°27' E 139°39'0 0.0
2017-Apr-16 14:59N 35°27' E 139°39'0 0.0
2017-Apr-16 14:29N 35°27' E 139°39'0 0.0
2017-Apr-16 13:29N 35°27' E 139°39'0 0.0
2017-Apr-16 12:59N 35°27' E 139°39'0 0.0
2017-Apr-16 12:29N 35°27' E 139°39'0 0.0
2017-Apr-16 11:59N 35°27' E 139°39'0 0.0
2017-Apr-16 11:29N 35°27' E 139°39'0 0.0
2017-Apr-16 10:59N 35°27' E 139°39'0 0.0
2017-Apr-16 10:29N 35°27' E 139°39'0 0.0
2017-Apr-16 09:59N 35°27' E 139°39'0 0.0
2017-Apr-16 09:29N 35°27' E 139°39'0 0.0
2017-Apr-16 08:59N 35°27' E 139°39'0 0.0
2017-Apr-16 08:29N 35°27' E 139°39'0 0.0
2017-Apr-16 07:59N 35°27' E 139°39'0 0.0
2017-Apr-16 07:29N 35°27' E 139°39'0 0.0
2017-Apr-16 06:59N 35°27' E 139°39'0 0.0
2017-Apr-16 06:29N 35°27' E 139°39'0 0.0
2017-Apr-16 05:59N 35°27' E 139°39'0 0.0
2017-Apr-16 05:29N 35°27' E 139°39'0 0.0
2017-Apr-16 04:59N 35°27' E 139°39'0 0.0
2017-Apr-16 04:29N 35°27' E 139°39'0 0.0
2017-Apr-16 03:59N 35°27' E 139°39'0 0.0
2017-Apr-16 03:29N 35°27' E 139°39'0 0.0
2017-Apr-16 02:59N 35°27' E 139°39'0 0.0
2017-Apr-16 02:29N 35°27' E 139°39'0 0.0
2017-Apr-16 01:59N 35°27' E 139°39'0 0.0
2017-Apr-16 01:29N 35°27' E 139°39'0 0.0
2017-Apr-16 00:59N 35°27' E 139°39'0 0.0
2017-Apr-16 00:29N 35°27' E 139°39'0 0.0
2017-Apr-15 23:59N 35°27' E 139°39'0 0.0
2017-Apr-15 23:29N 35°27' E 139°39'0 0.0
2017-Apr-15 22:59N 35°27' E 139°39'0 0.0
2017-Apr-15 22:29N 35°27' E 139°39'0 0.0
2017-Apr-15 21:59N 35°27' E 139°39'0 0.0
2017-Apr-15 21:29N 35°27' E 139°39'0 0.0
2017-Apr-15 20:59N 35°27' E 139°39'0 0.0
2017-Apr-15 20:29N 35°27' E 139°39'0 0.0
2017-Apr-15 19:59N 35°27' E 139°39'0 0.0
2017-Apr-15 19:29N 35°27' E 139°39'0 0.0
2017-Apr-15 18:59N 35°27' E 139°39'0 0.0
2017-Apr-15 18:29N 35°27' E 139°39'0 0.0
2017-Apr-15 17:59N 35°27' E 139°39'0 0.0
2017-Apr-15 17:29N 35°27' E 139°39'0 0.0
2017-Apr-15 16:59N 35°27' E 139°39'0 0.0
2017-Apr-15 16:29N 35°27' E 139°39'0 0.0
2017-Apr-15 15:59N 35°27' E 139°39'0 0.0
2017-Apr-15 15:29N 35°27' E 139°39'0 0.0
2017-Apr-15 14:59N 35°27' E 139°39'0 0.0
2017-Apr-15 13:59N 35°27' E 139°39'0 0.0
2017-Apr-15 13:29N 35°27' E 139°39'0 0.0
2017-Apr-15 12:59N 35°27' E 139°39'0 0.0
2017-Apr-15 12:29N 35°27' E 139°39'0 0.0
2017-Apr-15 11:59N 35°27' E 139°39'0 0.0
2017-Apr-15 11:29N 35°27' E 139°39'0 0.0
2017-Apr-15 10:59N 35°27' E 139°39'0 0.0
2017-Apr-15 10:29N 35°27' E 139°39'0 0.0
2017-Apr-15 09:59N 35°27' E 139°39'0 0.0
2017-Apr-15 09:29N 35°27' E 139°39'0 0.0
2017-Apr-15 08:59N 35°27' E 139°39'0 0.0
2017-Apr-15 08:29N 35°27' E 139°39'0 0.0
2017-Apr-15 07:59N 35°27' E 139°39'0 0.0
2017-Apr-15 07:29N 35°27' E 139°39'0 0.0
2017-Apr-15 06:59N 35°27' E 139°39'0 0.0
2017-Apr-15 06:29N 35°27' E 139°39'0 0.0
2017-Apr-15 05:59N 35°27' E 139°39'0 0.0
2017-Apr-15 05:29N 35°27' E 139°39'0 0.0
2017-Apr-15 04:59N 35°27' E 139°39'0 0.0
2017-Apr-15 04:29N 35°27' E 139°39'0 0.0
2017-Apr-15 03:59N 35°27' E 139°39'  
Track history (hours):
 
Tides and Currents Weather Stations Pressure Air Temp Water Temp Dewpoint Dewpoint Depression Visibility Wind Speed Wind Dir Waves Ship Positions

Oceanographic research ship Shonan Maru (Japan)

Detailed information on ship capabilities available from University of Delaware's Ocean Information Center.

Last reported at 2017-Apr-25 03:54 UTC. Time now 2017-May-24 07:59 UTC.
Position N 34°54' E 139°40'.
Warning: this ship's position is 29 days out of date.

Length 63 m; draft 4.5 m.

Type: Fishing. MMSI: 431254000.

Date/timePositionNaut miles runAvg speedWind from/ knotsBaromVisibWave heightAir tempDewpointWater temp
2017-Apr-25 03:54N 34°54' E 139°40'512.7
2017-Apr-25 03:30N 34°58' E 139°38'612.5
2017-Apr-25 03:00N 35°05' E 139°36'4 7.4
2017-Apr-25 02:30N 35°08' E 139°36'1 2.3
2017-Apr-25 02:00N 35°08' E 139°37'0 0.0
2017-Apr-24 23:07N 35°08' E 139°37'0 0.0
2017-Apr-24 23:00N 35°08' E 139°37'1 2.8
2017-Apr-24 22:30N 35°08' E 139°39'2 2.8
2017-Apr-24 21:57N 35°06' E 139°37'2 3.6
2017-Apr-24 21:28N 35°07' E 139°35'2 4.0
2017-Apr-24 20:59N 35°08' E 139°33'3 6.2
2017-Apr-24 20:30N 35°05' E 139°35'510.9
2017-Apr-24 20:00N 35°01' E 139°40'  
2017-Apr-22 04:07N 34°54' E 139°41'211.5
2017-Apr-22 03:54N 34°56' E 139°40'410.5
2017-Apr-22 03:30N 35°00' E 139°38'510.7
2017-Apr-22 03:00N 35°05' E 139°36'3 6.4
2017-Apr-22 02:30N 35°08' E 139°36'1 2.2
2017-Apr-22 02:00N 35°08' E 139°37'  
2017-Apr-19 01:22N 35°08' E 139°37'0 0.0
2017-Apr-18 22:16N 35°08' E 139°37'0 0.0
2017-Apr-18 21:46N 35°08' E 139°37'0 0.0
2017-Apr-18 21:04N 35°08' E 139°37'0 0.0
2017-Apr-18 20:46N 35°08' E 139°37'0 0.0
2017-Apr-18 19:58N 35°08' E 139°37'0 0.0
2017-Apr-18 19:22N 35°08' E 139°37'0 0.0
2017-Apr-18 18:52N 35°08' E 139°37'0 0.0
2017-Apr-18 18:22N 35°08' E 139°37'0 0.0
2017-Apr-18 13:52N 35°08' E 139°37'0 0.0
2017-Apr-18 11:28N 35°08' E 139°37'0 0.0
2017-Apr-18 10:40N 35°08' E 139°37'0 0.0
2017-Apr-18 10:28N 35°08' E 139°37'0 0.0
2017-Apr-18 03:28N 35°08' E 139°37'0 0.0
2017-Apr-18 02:58N 35°08' E 139°37'0 0.0
2017-Apr-18 01:40N 35°08' E 139°37'0 0.0
2017-Apr-18 00:16N 35°08' E 139°37'0 0.0
2017-Apr-17 23:52N 35°08' E 139°37'0 0.0
2017-Apr-17 23:28N 35°08' E 139°37'0 0.0
2017-Apr-17 19:16N 35°08' E 139°37'0 0.0
2017-Apr-17 18:58N 35°08' E 139°37'0 0.0
2017-Apr-17 18:28N 35°08' E 139°37'0 0.0
2017-Apr-17 12:46N 35°08' E 139°37'0 0.0
2017-Apr-17 12:22N 35°08' E 139°37'0 0.0
2017-Apr-17 11:52N 35°08' E 139°37'0 0.0
2017-Apr-17 11:22N 35°08' E 139°37'0 0.0
2017-Apr-17 10:04N 35°08' E 139°37'0 0.0
2017-Apr-17 09:52N 35°08' E 139°37'0 0.0
2017-Apr-17 09:16N 35°08' E 139°37'0 0.0
2017-Apr-17 08:52N 35°08' E 139°37'0 0.0
2017-Apr-17 08:22N 35°08' E 139°37'0 0.0
2017-Apr-17 08:00N 35°08' E 139°37'0 0.7
2017-Apr-17 07:30N 35°08' E 139°37'4 7.9
2017-Apr-17 07:00N 35°05' E 139°40'2 3.9
2017-Apr-17 06:30N 35°04' E 139°42'611.2
2017-Apr-17 06:00N 35°09' E 139°45'611.6
2017-Apr-17 05:30N 35°15' E 139°46'611.7
2017-Apr-17 05:00N 35°20' E 139°42'611.6
2017-Apr-17 04:30N 35°26' E 139°42'4 7.2
2017-Apr-17 04:01N 35°27' E 139°39'0 0.3
2017-Apr-17 03:29N 35°27' E 139°39'0 0.0
2017-Apr-17 02:59N 35°27' E 139°39'0 0.0
2017-Apr-17 02:29N 35°27' E 139°39'0 0.0
2017-Apr-17 01:59N 35°27' E 139°39'0 0.0
2017-Apr-17 01:29N 35°27' E 139°39'0 0.0
2017-Apr-17 00:59N 35°27' E 139°39'0 0.0
2017-Apr-17 00:29N 35°27' E 139°39'0 0.0
2017-Apr-16 23:59N 35°27' E 139°39'0 0.0
2017-Apr-16 23:29N 35°27' E 139°39'0 0.0
2017-Apr-16 22:59N 35°27' E 139°39'0 0.0
2017-Apr-16 22:29N 35°27' E 139°39'0 0.0
2017-Apr-16 21:59N 35°27' E 139°39'0 0.0
2017-Apr-16 21:29N 35°27' E 139°39'0 0.0
2017-Apr-16 20:59N 35°27' E 139°39'0 0.0
2017-Apr-16 20:29N 35°27' E 139°39'0 0.0
2017-Apr-16 19:59N 35°27' E 139°39'0 0.0
2017-Apr-16 19:29N 35°27' E 139°39'0 0.0
2017-Apr-16 18:59N 35°27' E 139°39'0 0.0
2017-Apr-16 18:29N 35°27' E 139°39'0 0.0
2017-Apr-16 17:59N 35°27' E 139°39'0 0.0
2017-Apr-16 17:29N 35°27' E 139°39'0 0.0
2017-Apr-16 16:59N 35°27' E 139°39'0 0.0
2017-Apr-16 16:29N 35°27' E 139°39'0 0.0
2017-Apr-16 15:59N 35°27' E 139°39'0 0.0
2017-Apr-16 15:29N 35°27' E 139°39'0 0.0
2017-Apr-16 14:59N 35°27' E 139°39'0 0.0
2017-Apr-16 14:29N 35°27' E 139°39'0 0.0
2017-Apr-16 13:29N 35°27' E 139°39'0 0.0
2017-Apr-16 12:59N 35°27' E 139°39'0 0.0
2017-Apr-16 12:29N 35°27' E 139°39'0 0.0
2017-Apr-16 11:59N 35°27' E 139°39'0 0.0
2017-Apr-16 11:29N 35°27' E 139°39'0 0.0
2017-Apr-16 10:59N 35°27' E 139°39'0 0.0
2017-Apr-16 10:29N 35°27' E 139°39'0 0.0
2017-Apr-16 09:59N 35°27' E 139°39'0 0.0
2017-Apr-16 09:29N 35°27' E 139°39'0 0.0
2017-Apr-16 08:59N 35°27' E 139°39'0 0.0
2017-Apr-16 08:29N 35°27' E 139°39'0 0.0
2017-Apr-16 07:59N 35°27' E 139°39'0 0.0
2017-Apr-16 07:29N 35°27' E 139°39'0 0.0
2017-Apr-16 06:59N 35°27' E 139°39'0 0.0
2017-Apr-16 06:29N 35°27' E 139°39'0 0.0
2017-Apr-16 05:59N 35°27' E 139°39'0 0.0
2017-Apr-16 05:29N 35°27' E 139°39'0 0.0
2017-Apr-16 04:59N 35°27' E 139°39'0 0.0
2017-Apr-16 04:29N 35°27' E 139°39'0 0.0
2017-Apr-16 03:59N 35°27' E 139°39'0 0.0
2017-Apr-16 03:29N 35°27' E 139°39'0 0.0
2017-Apr-16 02:59N 35°27' E 139°39'0 0.0
2017-Apr-16 02:29N 35°27' E 139°39'0 0.0
2017-Apr-16 01:59N 35°27' E 139°39'0 0.0
2017-Apr-16 01:29N 35°27' E 139°39'0 0.0
2017-Apr-16 00:59N 35°27' E 139°39'0 0.0
2017-Apr-16 00:29N 35°27' E 139°39'0 0.0
2017-Apr-15 23:59N 35°27' E 139°39'0 0.0
2017-Apr-15 23:29N 35°27' E 139°39'0 0.0
2017-Apr-15 22:59N 35°27' E 139°39'0 0.0
2017-Apr-15 22:29N 35°27' E 139°39'0 0.0
2017-Apr-15 21:59N 35°27' E 139°39'0 0.0
2017-Apr-15 21:29N 35°27' E 139°39'0 0.0
2017-Apr-15 20:59N 35°27' E 139°39'0 0.0
2017-Apr-15 20:29N 35°27' E 139°39'0 0.0
2017-Apr-15 19:59N 35°27' E 139°39'0 0.0
2017-Apr-15 19:29N 35°27' E 139°39'0 0.0
2017-Apr-15 18:59N 35°27' E 139°39'0 0.0
2017-Apr-15 18:29N 35°27' E 139°39'0 0.0
2017-Apr-15 17:59N 35°27' E 139°39'0 0.0
2017-Apr-15 17:29N 35°27' E 139°39'0 0.0
2017-Apr-15 16:59N 35°27' E 139°39'0 0.0
2017-Apr-15 16:29N 35°27' E 139°39'0 0.0
2017-Apr-15 15:59N 35°27' E 139°39'0 0.0
2017-Apr-15 15:29N 35°27' E 139°39'0 0.0
2017-Apr-15 14:59N 35°27' E 139°39'0 0.0
2017-Apr-15 13:59N 35°27' E 139°39'0 0.0
2017-Apr-15 13:29N 35°27' E 139°39'0 0.0
2017-Apr-15 12:59N 35°27' E 139°39'0 0.0
2017-Apr-15 12:29N 35°27' E 139°39'0 0.0
2017-Apr-15 11:59N 35°27' E 139°39'0 0.0
2017-Apr-15 11:29N 35°27' E 139°39'0 0.0
2017-Apr-15 10:59N 35°27' E 139°39'0 0.0
2017-Apr-15 10:29N 35°27' E 139°39'0 0.0
2017-Apr-15 09:59N 35°27' E 139°39'0 0.0
2017-Apr-15 09:29N 35°27' E 139°39'0 0.0
2017-Apr-15 08:59N 35°27' E 139°39'0 0.0
2017-Apr-15 08:29N 35°27' E 139°39'0 0.0
2017-Apr-15 07:59N 35°27' E 139°39'0 0.0
2017-Apr-15 07:29N 35°27' E 139°39'0 0.0
2017-Apr-15 06:59N 35°27' E 139°39'0 0.0
2017-Apr-15 06:29N 35°27' E 139°39'0 0.0
2017-Apr-15 05:59N 35°27' E 139°39'0 0.0
2017-Apr-15 05:29N 35°27' E 139°39'0 0.0
2017-Apr-15 04:59N 35°27' E 139°39'0 0.0
2017-Apr-15 04:29N 35°27' E 139°39'0 0.0
2017-Apr-15 03:59N 35°27' E 139°39'  

Dump ship's entire track history